createdAt,value
2018-12-29T00:00:54.831Z,-2.40
2018-12-29T00:03:24.646Z,-2.40
2018-12-29T00:05:54.226Z,-2.50
2018-12-29T00:08:27.485Z,-2.50
2018-12-29T00:10:57.381Z,-2.50
2018-12-29T00:13:26.983Z,-2.50
2018-12-29T00:15:58.276Z,-2.50
2018-12-29T00:18:28.098Z,-2.60
2018-12-29T00:20:57.607Z,-2.60
2018-12-29T00:23:27.450Z,-2.60
2018-12-29T00:25:57.585Z,-2.60
2018-12-29T00:28:27.586Z,-2.60
2018-12-29T00:30:57.435Z,-2.60
2018-12-29T00:33:27.212Z,-2.60
2018-12-29T00:35:58.631Z,-2.60
2018-12-29T00:38:29.821Z,-2.60
2018-12-29T00:40:59.827Z,-2.70
2018-12-29T00:43:29.508Z,-2.70
2018-12-29T00:45:59.565Z,-2.60
2018-12-29T00:48:29.789Z,-2.60
2018-12-29T00:50:59.870Z,-2.70
2018-12-29T00:53:29.913Z,-2.70
2018-12-29T00:55:59.919Z,-2.70
2018-12-29T00:58:30.088Z,-2.70
2018-12-29T01:01:00.114Z,-2.80
2018-12-29T01:03:29.377Z,-2.80
2018-12-29T01:05:58.543Z,-2.80
2018-12-29T01:08:27.703Z,-2.80
2018-12-29T01:10:56.925Z,-2.90
2018-12-29T01:13:26.120Z,-2.90
2018-12-29T01:15:55.273Z,-2.90
2018-12-29T01:18:24.405Z,-2.90
2018-12-29T01:20:53.578Z,-2.80
2018-12-29T01:23:22.796Z,-2.80
2018-12-29T01:25:52.549Z,-2.80
2018-12-29T01:28:22.278Z,-2.90
2018-12-29T01:30:51.851Z,-2.80
2018-12-29T01:33:21.167Z,-2.80
2018-12-29T01:35:50.687Z,-2.80
2018-12-29T01:38:20.285Z,-2.80
2018-12-29T01:40:49.818Z,-2.80
2018-12-29T01:43:19.414Z,-2.80
2018-12-29T01:45:48.917Z,-2.80
2018-12-29T01:48:18.422Z,-2.90
2018-12-29T01:50:47.819Z,-2.80
2018-12-29T01:53:17.273Z,-2.80
2018-12-29T01:55:46.958Z,-2.80
2018-12-29T01:58:16.652Z,-2.90
2018-12-29T02:00:46.131Z,-2.90
2018-12-29T02:03:15.560Z,-2.90
2018-12-29T02:05:45.055Z,-2.90
2018-12-29T02:08:15.077Z,-2.90
2018-12-29T02:10:44.583Z,-2.90
2018-12-29T02:13:20.614Z,-2.90
2018-12-29T02:15:45.730Z,-2.90
2018-12-29T02:18:15.526Z,-2.90
2018-12-29T02:20:45.061Z,-2.90
2018-12-29T02:23:14.669Z,-2.90
2018-12-29T02:25:44.389Z,-2.90
2018-12-29T02:28:14.305Z,-2.90
2018-12-29T02:30:48.303Z,-2.90
2018-12-29T02:33:18.187Z,-2.90
2018-12-29T02:35:47.724Z,-2.90
2018-12-29T02:38:17.384Z,-3.00
2018-12-29T02:40:47.184Z,-3.00
2018-12-29T02:43:17.364Z,-3.00
2018-12-29T02:45:47.687Z,-3.00
2018-12-29T02:48:17.066Z,-3.00
2018-12-29T02:50:46.296Z,-3.00
2018-12-29T02:53:15.449Z,-3.00
2018-12-29T02:55:44.691Z,-3.00
2018-12-29T02:58:13.889Z,-2.90
2018-12-29T03:00:43.180Z,-2.90
2018-12-29T03:03:12.403Z,-3.00
2018-12-29T03:05:41.647Z,-3.00
2018-12-29T03:08:10.813Z,-3.00
2018-12-29T03:10:39.989Z,-3.10
2018-12-29T03:13:09.322Z,-3.10
2018-12-29T03:15:41.736Z,-3.10
2018-12-29T03:18:09.821Z,-3.10
2018-12-29T03:20:45.478Z,-3.10
2018-12-29T03:23:15.155Z,-3.10
2018-12-29T03:25:44.961Z,-3.10
2018-12-29T03:28:16.063Z,-3.10
2018-12-29T03:30:45.950Z,-3.10
2018-12-29T03:33:15.882Z,-3.00
2018-12-29T03:35:45.573Z,-3.00
2018-12-29T03:38:15.225Z,-3.00
2018-12-29T03:40:44.972Z,-3.00
2018-12-29T03:43:14.448Z,-2.90
2018-12-29T03:45:49.100Z,-2.90
2018-12-29T03:48:15.148Z,-2.80
2018-12-29T03:50:44.856Z,-2.90
2018-12-29T03:53:14.437Z,-2.90
2018-12-29T03:55:44.108Z,-2.80
2018-12-29T03:58:13.826Z,-2.80
2018-12-29T04:00:44.149Z,-2.80
2018-12-29T04:03:13.713Z,-2.70
2018-12-29T04:05:43.457Z,-2.70
2018-12-29T04:08:13.382Z,-2.70
2018-12-29T04:10:42.705Z,-2.70
2018-12-29T04:13:12.591Z,-2.70
2018-12-29T04:15:42.850Z,-2.70
2018-12-29T04:18:14.519Z,-2.60
2018-12-29T04:20:46.085Z,-2.60
2018-12-29T04:23:16.961Z,-2.60
2018-12-29T04:25:49.746Z,-2.50
2018-12-29T04:28:19.721Z,-2.50
2018-12-29T04:30:49.522Z,-2.50
2018-12-29T04:33:29.681Z,-2.40
2018-12-29T04:36:06.969Z,-2.40
2018-12-29T04:38:49.271Z,-2.40
2018-12-29T04:41:19.067Z,-2.50
2018-12-29T04:43:48.625Z,-2.50
2018-12-29T04:46:18.607Z,-2.50
2018-12-29T04:48:48.725Z,-2.50
2018-12-29T04:51:18.587Z,-2.50
2018-12-29T04:53:48.871Z,-2.50
2018-12-29T04:56:19.032Z,-2.50
2018-12-29T04:58:51.875Z,-2.50
2018-12-29T05:01:21.632Z,-2.50
2018-12-29T05:04:10.597Z,-2.50
2018-12-29T05:06:40.613Z,-2.40
2018-12-29T05:09:26.091Z,-2.40
2018-12-29T05:11:58.850Z,-2.40
2018-12-29T05:14:28.799Z,-2.30
2018-12-29T05:16:58.659Z,-2.30
2018-12-29T05:19:28.472Z,-2.30
2018-12-29T05:22:04.222Z,-2.30
2018-12-29T05:24:34.188Z,-2.20
2018-12-29T05:27:03.864Z,-2.20
2018-12-29T05:29:34.170Z,-2.10
2018-12-29T05:32:04.137Z,-2.10
2018-12-29T05:34:34.050Z,-2.10
2018-12-29T05:37:03.785Z,-2.00
2018-12-29T05:39:42.838Z,-2.00
2018-12-29T05:42:12.773Z,-2.00
2018-12-29T05:44:42.499Z,-2.00
2018-12-29T05:47:12.727Z,-2.00
2018-12-29T05:49:42.806Z,-2.00
2018-12-29T05:52:12.720Z,-2.00
2018-12-29T05:54:42.837Z,-1.90
2018-12-29T05:57:16.234Z,-1.90
2018-12-29T05:59:48.619Z,-1.90
2018-12-29T06:02:21.797Z,-1.80
2018-12-29T06:04:58.987Z,-1.80
2018-12-29T06:07:29.102Z,-1.70
2018-12-29T06:09:59.265Z,-1.80
2018-12-29T06:12:31.989Z,-1.70
2018-12-29T06:15:02.089Z,-1.60
2018-12-29T06:17:32.534Z,-1.60
2018-12-29T06:20:05.193Z,-1.70
2018-12-29T06:22:34.947Z,-1.60
2018-12-29T06:25:30.544Z,-1.60
2018-12-29T06:28:00.311Z,-1.60
2018-12-29T06:30:29.942Z,-1.60
2018-12-29T06:32:59.840Z,-1.60
2018-12-29T06:35:29.477Z,-1.70
2018-12-29T06:37:59.047Z,-1.60
2018-12-29T06:40:29.020Z,-1.60
2018-12-29T06:42:58.835Z,-1.70
2018-12-29T06:45:28.696Z,-1.60
2018-12-29T06:47:58.800Z,-1.70
2018-12-29T06:50:29.088Z,-1.60
2018-12-29T06:52:59.105Z,-1.60
2018-12-29T06:55:32.606Z,-1.60
2018-12-29T07:00:59.059Z,-1.50
2018-12-29T07:07:14.664Z,-1.60
2018-12-29T07:09:44.682Z,-1.50
2018-12-29T07:12:26.781Z,-1.50
2018-12-29T07:14:59.344Z,-1.50
2018-12-29T07:17:30.540Z,-1.40
2018-12-29T07:20:00.677Z,-1.40
2018-12-29T07:22:30.891Z,-1.40
2018-12-29T07:25:01.244Z,-1.40
2018-12-29T07:27:37.065Z,-1.40
2018-12-29T07:30:10.930Z,-1.50
2018-12-29T07:32:41.055Z,-1.50
2018-12-29T07:35:14.241Z,-1.40
2018-12-29T07:37:50.372Z,-1.30
2018-12-29T07:40:20.604Z,-1.30
2018-12-29T07:43:09.790Z,-1.30
2018-12-29T07:45:42.766Z,-1.20
2018-12-29T07:48:13.455Z,-1.30
2018-12-29T07:50:43.398Z,-1.20
2018-12-29T07:53:13.441Z,-1.30
2018-12-29T07:55:43.534Z,-1.20
2018-12-29T07:58:16.726Z,-1.20
2018-12-29T08:00:46.741Z,-1.10
2018-12-29T08:03:16.594Z,-1.10
2018-12-29T08:05:47.623Z,-1.00
2018-12-29T08:12:22.172Z,-1.10
2018-12-29T08:14:55.031Z,-1.10
2018-12-29T08:17:25.252Z,-1.10
2018-12-29T08:19:55.693Z,-1.00
2018-12-29T08:22:25.725Z,-0.90
2018-12-29T08:24:55.740Z,-0.90
2018-12-29T08:27:27.023Z,-0.80
2018-12-29T08:29:57.516Z,-0.80
2018-12-29T08:32:27.631Z,-0.80
2018-12-29T08:34:59.415Z,-0.90
2018-12-29T08:37:29.308Z,-0.80
2018-12-29T08:40:02.883Z,-0.70
2018-12-29T08:42:33.272Z,-0.70
2018-12-29T08:45:03.045Z,-0.60
2018-12-29T08:47:42.072Z,-0.60
2018-12-29T08:50:24.351Z,-0.60
2018-12-29T08:52:54.079Z,-0.50
2018-12-29T08:55:26.786Z,-0.50
2018-12-29T08:57:56.888Z,-0.40
2018-12-29T09:00:26.598Z,-0.40
2018-12-29T09:02:56.819Z,-0.30
2018-12-29T09:05:35.747Z,-0.30
2018-12-29T09:08:06.145Z,-0.40
2018-12-29T09:10:36.591Z,-0.20
2018-12-29T09:13:12.548Z,-0.10
2018-12-29T09:16:10.118Z,-0.30
2018-12-29T09:18:49.549Z,-0.20
2018-12-29T09:21:23.466Z,0.20
2018-12-29T09:23:53.684Z,0.20
2018-12-29T09:26:30.155Z,0.10
2018-12-29T09:29:18.603Z,0.10
2018-12-29T09:31:49.822Z,0.10
2018-12-29T09:34:32.948Z,0.00
2018-12-29T09:37:09.200Z,-0.10
2018-12-29T09:39:42.060Z,0.00
2018-12-29T09:42:31.160Z,-0.10
2018-12-29T09:45:02.431Z,0.10
2018-12-29T09:47:32.673Z,0.00
2018-12-29T09:50:13.161Z,0.10
2018-12-29T09:52:54.868Z,0.10
2018-12-29T09:55:27.248Z,0.10
2018-12-29T09:58:10.648Z,0.00
2018-12-29T10:00:46.629Z,-0.10
2018-12-29T10:03:22.820Z,0.00
2018-12-29T10:06:10.516Z,0.00
2018-12-29T10:08:40.321Z,0.00
2018-12-29T10:11:10.597Z,-0.10
2018-12-29T10:13:40.454Z,-0.10
2018-12-29T10:16:11.409Z,0.00
2018-12-29T10:22:02.480Z,0.00
2018-12-29T10:24:32.600Z,0.00
2018-12-29T10:27:02.354Z,-0.10
2018-12-29T10:29:31.986Z,0.10
2018-12-29T10:32:02.240Z,-0.10
2018-12-29T10:34:54.276Z,-0.10
2018-12-29T10:37:30.509Z,0.10
2018-12-29T10:39:59.718Z,0.10
2018-12-29T10:42:28.864Z,0.10
2018-12-29T10:45:14.494Z,0.00
2018-12-29T10:47:47.093Z,0.10
2018-12-29T10:50:26.222Z,0.10
2018-12-29T10:52:56.495Z,0.10
2018-12-29T10:55:26.666Z,0.10
2018-12-29T10:57:59.653Z,0.10
2018-12-29T11:00:35.140Z,0.20
2018-12-29T11:03:08.391Z,0.40
2018-12-29T11:05:40.008Z,0.40
2018-12-29T11:11:01.765Z,0.50
2018-12-29T11:13:31.911Z,0.60
2018-12-29T11:16:05.511Z,0.80
2018-12-29T11:18:38.599Z,0.90
2018-12-29T11:24:51.339Z,0.90
2018-12-29T11:27:23.916Z,1.20
2018-12-29T11:29:54.007Z,1.10
2018-12-29T11:32:30.196Z,1.20
2018-12-29T11:35:00.087Z,1.10
2018-12-29T11:38:05.288Z,1.10
2018-12-29T11:40:35.899Z,1.30
2018-12-29T11:43:12.146Z,1.20
2018-12-29T11:45:42.090Z,1.10
2018-12-29T11:48:14.997Z,1.20
2018-12-29T11:50:44.895Z,1.20
2018-12-29T11:53:17.798Z,1.10
2018-12-29T11:55:51.441Z,1.30
2018-12-29T11:58:24.127Z,1.40
2018-12-29T12:00:54.220Z,1.60
2018-12-29T12:03:27.145Z,1.60
2018-12-29T12:05:57.337Z,1.60
2018-12-29T12:08:31.747Z,1.70
2018-12-29T12:11:01.687Z,1.70
2018-12-29T12:13:35.158Z,1.80
2018-12-29T12:16:05.568Z,1.90
2018-12-29T12:18:38.600Z,2.00
2018-12-29T12:21:11.456Z,1.90
2018-12-29T12:23:44.369Z,1.70
2018-12-29T12:26:20.428Z,1.90
2018-12-29T12:28:53.498Z,1.90
2018-12-29T12:31:30.351Z,1.90
2018-12-29T12:34:28.470Z,1.90
2018-12-29T12:36:58.357Z,1.90
2018-12-29T12:39:28.811Z,1.90
2018-12-29T12:41:58.768Z,1.90
2018-12-29T12:44:31.918Z,2.00
2018-12-29T12:47:01.932Z,2.00
2018-12-29T12:49:32.361Z,2.30
2018-12-29T12:52:02.277Z,2.30
2018-12-29T12:54:31.981Z,2.30
2018-12-29T12:57:01.975Z,2.40
2018-12-29T12:59:32.428Z,2.50
2018-12-29T13:02:02.549Z,2.80
2018-12-29T13:04:32.693Z,2.80
2018-12-29T13:10:15.711Z,2.90
2018-12-29T13:12:48.492Z,2.80
2018-12-29T13:15:21.753Z,2.60
2018-12-29T13:17:55.285Z,2.60
2018-12-29T13:20:25.580Z,2.90
2018-12-29T13:22:55.386Z,3.00
2018-12-29T13:25:26.129Z,3.20
2018-12-29T13:27:56.401Z,3.30
2018-12-29T13:30:31.510Z,3.50
2018-12-29T13:33:01.237Z,3.70
2018-12-29T13:35:31.029Z,4.10
2018-12-29T13:38:00.706Z,4.40
2018-12-29T13:40:30.763Z,3.80
2018-12-29T13:43:09.829Z,4.10
2018-12-29T13:45:40.076Z,4.40
2018-12-29T13:48:09.934Z,4.30
2018-12-29T13:50:40.056Z,4.30
2018-12-29T13:53:10.065Z,4.40
2018-12-29T13:55:40.053Z,4.50
2018-12-29T13:58:09.866Z,4.50
2018-12-29T14:00:39.986Z,4.50
2018-12-29T14:03:10.143Z,4.50
2018-12-29T14:05:39.953Z,4.40
2018-12-29T14:08:10.140Z,4.40
2018-12-29T14:10:40.266Z,4.40
2018-12-29T14:13:10.468Z,4.50
2018-12-29T14:15:40.461Z,4.50
2018-12-29T14:18:10.152Z,4.00
2018-12-29T14:20:40.254Z,3.80
2018-12-29T14:23:10.371Z,3.80
2018-12-29T14:25:40.675Z,3.80
2018-12-29T14:28:10.512Z,4.00
2018-12-29T14:30:43.285Z,4.10
2018-12-29T14:33:13.207Z,4.00
2018-12-29T14:35:43.215Z,3.90
2018-12-29T14:38:13.342Z,3.90
2018-12-29T14:40:46.127Z,4.00
2018-12-29T14:43:16.094Z,4.00
2018-12-29T14:45:47.328Z,3.90
2018-12-29T14:48:22.631Z,3.90
2018-12-29T14:50:52.484Z,3.80
2018-12-29T14:53:22.662Z,3.80
2018-12-29T14:55:52.956Z,3.70
2018-12-29T14:58:25.966Z,3.70
2018-12-29T15:00:58.623Z,3.50
2018-12-29T15:03:28.567Z,3.50
2018-12-29T15:05:59.500Z,3.50
2018-12-29T15:08:30.127Z,3.40
2018-12-29T15:11:02.000Z,3.30
2018-12-29T15:13:35.496Z,3.20
2018-12-29T15:16:08.584Z,3.10
2018-12-29T15:18:43.452Z,3.10
2018-12-29T15:21:10.719Z,3.00
2018-12-29T15:23:40.683Z,2.90
2018-12-29T15:33:13.824Z,2.60
2018-12-29T15:35:49.610Z,2.40
2018-12-29T15:38:19.940Z,2.30
2018-12-29T15:40:51.380Z,2.20
2018-12-29T15:43:21.365Z,2.10
2018-12-29T15:45:51.484Z,2.00
2018-12-29T15:48:21.448Z,1.90
2018-12-29T15:50:51.559Z,1.80
2018-12-29T15:53:21.711Z,1.80
2018-12-29T15:55:52.815Z,1.70
2018-12-29T15:58:26.316Z,1.70
2018-12-29T16:00:56.079Z,1.50
2018-12-29T16:03:26.184Z,1.50
2018-12-29T16:05:57.086Z,1.40
2018-12-29T16:08:27.448Z,1.40
2018-12-29T16:11:10.189Z,1.30
2018-12-29T16:13:40.581Z,1.30
2018-12-29T16:16:10.291Z,1.20
2018-12-29T16:18:40.519Z,1.10
2018-12-29T16:21:14.046Z,1.10
2018-12-29T16:23:46.071Z,1.10
2018-12-29T16:26:15.273Z,1.00
2018-12-29T16:28:45.016Z,1.00
2018-12-29T16:31:14.279Z,1.00
2018-12-29T16:33:43.566Z,0.90
2018-12-29T16:36:13.184Z,0.90
2018-12-29T16:38:49.465Z,0.90
2018-12-29T16:41:20.128Z,0.80
2018-12-29T16:43:53.582Z,0.90
2018-12-29T16:46:23.734Z,0.90
2018-12-29T16:48:53.153Z,0.90
2018-12-29T16:51:22.509Z,0.90
2018-12-29T16:53:55.262Z,0.90
2018-12-29T16:56:26.577Z,0.80
2018-12-29T16:58:56.320Z,0.80
2018-12-29T17:01:26.184Z,0.80
2018-12-29T17:03:56.011Z,0.80
2018-12-29T17:06:25.603Z,0.80
2018-12-29T17:08:55.187Z,0.80
2018-12-29T17:11:24.884Z,0.70
2018-12-29T17:13:57.462Z,0.70
2018-12-29T17:16:26.669Z,0.70
2018-12-29T17:18:55.974Z,0.70
2018-12-29T17:21:25.189Z,0.70
2018-12-29T17:23:54.532Z,0.70
2018-12-29T17:26:23.800Z,0.70
2018-12-29T17:28:53.070Z,0.70
2018-12-29T17:31:22.796Z,0.70
2018-12-29T17:33:52.308Z,0.60
2018-12-29T17:36:21.628Z,0.60
2018-12-29T17:38:51.028Z,0.60
2018-12-29T17:41:20.281Z,0.60
2018-12-29T17:43:49.931Z,0.60
2018-12-29T17:46:19.176Z,0.60
2018-12-29T17:48:48.441Z,0.60
2018-12-29T17:51:18.103Z,0.60
2018-12-29T17:53:48.385Z,0.60
2018-12-29T17:56:18.078Z,0.50
2018-12-29T17:58:47.823Z,0.50
2018-12-29T18:01:17.468Z,0.50
2018-12-29T18:03:47.165Z,0.50
2018-12-29T18:06:16.715Z,0.50
2018-12-29T18:08:46.253Z,0.40
2018-12-29T18:11:16.064Z,0.40
2018-12-29T18:13:45.805Z,0.40
2018-12-29T18:16:15.687Z,0.40
2018-12-29T18:18:45.772Z,0.30
2018-12-29T18:21:15.687Z,0.30
2018-12-29T18:23:45.676Z,0.40
2018-12-29T18:26:15.454Z,0.30
2018-12-29T18:28:45.634Z,0.30
2018-12-29T18:31:15.281Z,0.30
2018-12-29T18:33:46.100Z,0.30
2018-12-29T18:36:15.584Z,0.30
2018-12-29T18:38:45.805Z,0.30
2018-12-29T18:41:15.500Z,0.20
2018-12-29T18:43:45.159Z,0.20
2018-12-29T18:46:15.092Z,0.20
2018-12-29T18:48:44.876Z,0.20
2018-12-29T18:51:17.639Z,0.20
2018-12-29T18:53:48.119Z,0.20
2018-12-29T18:56:17.856Z,0.20
2018-12-29T18:58:47.606Z,0.10
2018-12-29T19:01:19.400Z,0.20
2018-12-29T19:03:49.317Z,0.10
2018-12-29T19:06:19.124Z,0.10
2018-12-29T19:08:52.323Z,0.10
2018-12-29T19:11:22.025Z,0.10
2018-12-29T19:14:01.647Z,0.10
2018-12-29T19:16:31.464Z,0.10
2018-12-29T19:19:01.439Z,0.10
2018-12-29T19:21:40.258Z,0.00
2018-12-29T19:24:10.634Z,0.00
2018-12-29T19:26:40.486Z,0.00
2018-12-29T19:29:09.922Z,0.00
2018-12-29T19:31:44.544Z,0.00
2018-12-29T19:34:14.749Z,0.00
2018-12-29T19:36:49.039Z,0.00
2018-12-29T19:39:18.951Z,-0.10
2018-12-29T19:41:54.940Z,-0.10
2018-12-29T19:44:20.009Z,-0.20
2018-12-29T19:46:50.157Z,-0.20
2018-12-29T19:49:19.768Z,-0.20
2018-12-29T19:51:49.436Z,-0.20
2018-12-29T19:54:19.152Z,-0.20
2018-12-29T19:56:48.812Z,-0.30
2018-12-29T19:59:19.660Z,-0.30
2018-12-29T20:04:51.580Z,-0.30
2018-12-29T20:07:21.537Z,-0.30
2018-12-29T20:09:59.974Z,-0.30
2018-12-29T20:12:30.918Z,-0.40
2018-12-29T20:15:00.748Z,-0.30
2018-12-29T20:17:34.959Z,-0.40
2018-12-29T20:20:01.793Z,-0.40
2018-12-29T20:22:31.620Z,-0.40
2018-12-29T20:25:01.053Z,-0.40
2018-12-29T20:27:30.542Z,-0.40
2018-12-29T20:30:00.253Z,-0.40
2018-12-29T20:32:29.995Z,-0.40
2018-12-29T20:34:59.540Z,-0.40
2018-12-29T20:37:28.937Z,-0.40
2018-12-29T20:39:58.369Z,-0.40
2018-12-29T20:42:27.964Z,-0.40
2018-12-29T20:44:57.623Z,-0.40
2018-12-29T20:47:27.059Z,-0.40
2018-12-29T20:49:56.352Z,-0.50
2018-12-29T20:52:25.830Z,-0.50
2018-12-29T20:54:55.984Z,-0.40
2018-12-29T20:57:25.568Z,-0.40
2018-12-29T20:59:54.978Z,-0.40
2018-12-29T21:02:24.204Z,-0.30
2018-12-29T21:04:53.484Z,-0.30
2018-12-29T21:07:23.076Z,-0.30
2018-12-29T21:09:52.761Z,-0.30
2018-12-29T21:12:22.179Z,-0.30
2018-12-29T21:14:51.716Z,-0.30
2018-12-29T21:17:21.448Z,-0.30
2018-12-29T21:19:51.103Z,-0.30
2018-12-29T21:22:20.809Z,-0.30
2018-12-29T21:24:50.318Z,-0.30
2018-12-29T21:27:19.523Z,-0.40
2018-12-29T21:29:49.062Z,-0.40
2018-12-29T21:32:18.569Z,-0.40
2018-12-29T21:34:48.316Z,-0.40
2018-12-29T21:37:17.830Z,-0.50
2018-12-29T21:39:47.081Z,-0.50
2018-12-29T21:42:16.325Z,-0.60
2018-12-29T21:44:45.620Z,-0.50
2018-12-29T21:47:15.324Z,-0.50
2018-12-29T21:49:53.606Z,-0.50
2018-12-29T21:52:27.403Z,-0.50
2018-12-29T21:54:56.748Z,-0.50
2018-12-29T21:57:26.233Z,-0.50
2018-12-29T21:59:55.875Z,-0.50
2018-12-29T22:02:25.276Z,-0.50
2018-12-29T22:04:54.551Z,-0.50
2018-12-29T22:07:23.849Z,-0.50
2018-12-29T22:09:53.036Z,-0.40
2018-12-29T22:12:22.352Z,-0.50
2018-12-29T22:14:51.590Z,-0.50
2018-12-29T22:17:20.820Z,-0.50
2018-12-29T22:19:50.105Z,-0.60
2018-12-29T22:22:19.644Z,-0.60
2018-12-29T22:24:49.043Z,-0.50
2018-12-29T22:27:18.493Z,-0.50
2018-12-29T22:29:48.088Z,-0.50
2018-12-29T22:32:17.512Z,-0.50
2018-12-29T22:34:46.890Z,-0.50
2018-12-29T22:37:16.615Z,-0.60
2018-12-29T22:39:46.149Z,-0.50
2018-12-29T22:42:18.309Z,-0.60
2018-12-29T22:44:47.544Z,-0.60
2018-12-29T22:47:16.780Z,-0.60
2018-12-29T22:49:45.983Z,-0.60
2018-12-29T22:52:15.225Z,-0.60
2018-12-29T22:54:44.474Z,-0.60
2018-12-29T22:57:13.701Z,-0.60
2018-12-29T22:59:42.932Z,-0.50
2018-12-29T23:02:12.373Z,-0.50
2018-12-29T23:04:41.672Z,-0.40
2018-12-29T23:07:11.376Z,-0.40
2018-12-29T23:09:40.625Z,-0.30
2018-12-29T23:12:10.131Z,-0.30
2018-12-29T23:14:39.437Z,-0.30
2018-12-29T23:17:08.853Z,-0.50
2018-12-29T23:19:38.250Z,-0.40
2018-12-29T23:22:07.674Z,-0.40
2018-12-29T23:24:36.995Z,-0.40
2018-12-29T23:27:06.416Z,-0.30
2018-12-29T23:29:35.677Z,-0.30
2018-12-29T23:32:05.044Z,-0.30
2018-12-29T23:34:34.668Z,-0.30
2018-12-29T23:37:04.047Z,-0.30
2018-12-29T23:39:33.474Z,-0.30
2018-12-29T23:42:02.811Z,-0.10
2018-12-29T23:44:32.061Z,-0.10
2018-12-29T23:47:01.392Z,0.00
2018-12-29T23:49:31.065Z,0.00
2018-12-29T23:52:00.736Z,0.10
2018-12-29T23:54:30.364Z,0.20
2018-12-29T23:57:00.188Z,0.20
2018-12-29T23:59:29.540Z,0.20
